EDDB

Berlin-Schönefeld International Airport

Berlin, Germany
METAR EDDB 211320Z 01006KT 300V050 CAVOK 27/08 Q1012 NOSIG
Observed Flight Rules
Jul-21 @ 13:20 UTC (26 minutes ago) Visual Flight Rules
Wind Visibility Clouds
10° at 6 knots 10,000+ meters
  • Clear skies
Temperatures Readings
Current 27°C / 81°F
Dewpoint 8°C / 46°F
Humidity 30%
Altimeter 29.88" Hg
Pressure 1012 hPa
Elevation 48
METAR EDDB 211320Z 01006KT 300V050 CAVOK 27/08 Q1012 NOSIG
Observed Flight Rules
Jul-21 @ 13:20 UTC
(26 minutes ago)
VFR
Wind Visibility
10° at 6 knots 10,000+ meters
Clouds
  • Clear skies
Temperature Dewpoint
27°C / 81°F 8°C / 46°F
Humidity Altimeter Pressure
30% 29.88" Hg 1012 hPa